createdAt,value
2022-08-07T00:01:12.609Z,100993.63
2022-08-07T00:03:50.711Z,100993.78
2022-08-07T00:06:17.479Z,100996.09
2022-08-07T00:08:46.935Z,101000.03
2022-08-07T00:11:13.619Z,100999.81
2022-08-07T00:13:47.821Z,100997.44
2022-08-07T00:16:17.565Z,100989.19
2022-08-07T00:18:48.349Z,100983.25
2022-08-07T00:21:56.246Z,100975.59
2022-08-07T00:24:01.611Z,100983.66
2022-08-07T00:26:59.309Z,100981.75
2022-08-07T00:29:15.247Z,100985.66
2022-08-07T00:31:42.354Z,100989.59
2022-08-07T00:34:09.535Z,100980.16
2022-08-07T00:36:38.550Z,100977.00
2022-08-07T00:39:09.235Z,100973.25
2022-08-07T00:41:53.809Z,100959.88
2022-08-07T00:44:28.101Z,100968.22
2022-08-07T00:46:55.352Z,100964.44
2022-08-07T00:50:16.850Z,100965.34
2022-08-07T00:52:09.909Z,100968.25
2022-08-07T00:54:36.434Z,100965.47
2022-08-07T00:57:07.291Z,100964.13
2022-08-07T00:59:37.716Z,100969.97
2022-08-07T01:02:14.083Z,100964.00
2022-08-07T01:04:53.753Z,100959.88
2022-08-07T01:07:25.050Z,100956.41
2022-08-07T01:10:06.373Z,100953.34
2022-08-07T01:12:40.035Z,100956.22
2022-08-07T01:15:20.412Z,100948.91
2022-08-07T01:17:46.945Z,100953.16
2022-08-07T01:20:17.468Z,100951.50
2022-08-07T01:23:00.552Z,100953.09
2022-08-07T01:25:54.727Z,100949.50
2022-08-07T01:28:21.866Z,100950.47
2022-08-07T01:30:51.220Z,100951.00
2022-08-07T01:33:18.582Z,100957.19
2022-08-07T01:35:54.307Z,100957.00
2022-08-07T01:38:31.946Z,100946.13
2022-08-07T01:41:00.417Z,100947.47
2022-08-07T01:43:34.722Z,100953.50
2022-08-07T01:46:05.596Z,100949.50
2022-08-07T01:48:34.904Z,100947.34
2022-08-07T01:51:24.748Z,100944.19
2022-08-07T01:54:12.639Z,100959.47
2022-08-07T01:57:01.023Z,100954.50
2022-08-07T01:59:54.013Z,100950.75
2022-08-07T02:03:12.462Z,100950.88
2022-08-07T02:05:47.555Z,100947.09
2022-08-07T02:08:11.053Z,100947.16
2022-08-07T02:10:43.633Z,100946.22
2022-08-07T02:13:17.007Z,100948.16
2022-08-07T02:15:45.768Z,100948.16
2022-08-07T02:18:13.823Z,100944.53
2022-08-07T02:20:42.992Z,100950.34
2022-08-07T02:23:16.905Z,100954.28
2022-08-07T02:26:31.379Z,100955.50
2022-08-07T02:28:40.971Z,100951.03
2022-08-07T02:31:18.875Z,100954.84
2022-08-07T02:34:11.180Z,100955.94
2022-08-07T02:36:41.295Z,100958.66
2022-08-07T02:39:17.361Z,100950.19
2022-08-07T02:41:57.441Z,100945.63
2022-08-07T02:44:27.555Z,100942.84
2022-08-07T02:47:01.595Z,100952.81
2022-08-07T02:49:59.060Z,100946.69
2022-08-07T02:52:21.508Z,100943.63
2022-08-07T02:55:04.909Z,100939.00
2022-08-07T02:57:53.701Z,100935.75
2022-08-07T03:00:21.061Z,100938.47
2022-08-07T03:02:55.001Z,100933.94
2022-08-07T03:05:24.592Z,100920.75
2022-08-07T03:08:08.052Z,100917.47
2022-08-07T03:10:41.083Z,100924.13
2022-08-07T03:13:19.282Z,100923.63
2022-08-07T03:15:56.147Z,100921.06
2022-08-07T03:18:34.487Z,100926.88
2022-08-07T03:21:04.911Z,100926.97
2022-08-07T03:24:19.469Z,100929.28
2022-08-07T03:26:27.337Z,100931.50
2022-08-07T03:28:58.503Z,100925.03
2022-08-07T03:31:43.524Z,100926.25
2022-08-07T03:34:18.566Z,100920.16
2022-08-07T03:36:53.040Z,100914.44
2022-08-07T03:39:59.402Z,100915.22
2022-08-07T03:42:09.252Z,100906.31
2022-08-07T03:44:37.632Z,100908.19
2022-08-07T03:47:13.751Z,100914.41
2022-08-07T03:49:48.062Z,100910.28
2022-08-07T03:52:26.807Z,100914.44
2022-08-07T03:55:06.251Z,100904.75
2022-08-07T03:58:33.101Z,100905.50
2022-08-07T04:00:29.201Z,100919.84
2022-08-07T04:02:58.644Z,100913.00
2022-08-07T04:05:39.439Z,100918.81
2022-08-07T04:08:11.601Z,100922.16
2022-08-07T04:10:39.737Z,100916.44
2022-08-07T04:13:15.081Z,100917.66
2022-08-07T04:15:43.167Z,100927.72
2022-08-07T04:18:56.261Z,100932.00
2022-08-07T04:21:00.974Z,100931.50
2022-08-07T04:23:43.984Z,100926.38
2022-08-07T04:26:16.917Z,100923.03
2022-08-07T04:28:48.555Z,100930.34
2022-08-07T04:31:20.186Z,100919.53
2022-08-07T04:34:02.838Z,100924.63
2022-08-07T04:36:29.317Z,100936.09
2022-08-07T04:38:56.400Z,100934.44
2022-08-07T04:41:24.740Z,100936.41
2022-08-07T04:44:13.232Z,100937.22
2022-08-07T04:47:04.515Z,100945.19
2022-08-07T04:49:57.950Z,100950.19
2022-08-07T04:52:51.100Z,100941.09
2022-08-07T04:58:12.969Z,100948.22
2022-08-07T05:02:00.197Z,100952.75
2022-08-07T05:04:32.855Z,100956.53
2022-08-07T05:07:20.952Z,100962.59
2022-08-07T05:09:59.387Z,100958.16
2022-08-07T05:12:34.917Z,100951.09
2022-08-07T05:15:23.600Z,100961.50
2022-08-07T05:17:56.499Z,100965.38
2022-08-07T05:20:31.563Z,100961.78
2022-08-07T05:23:03.860Z,100959.53
2022-08-07T05:25:54.631Z,100968.84
2022-08-07T05:28:23.321Z,100961.06
2022-08-07T05:30:55.429Z,100959.94
2022-08-07T05:33:23.641Z,100960.25
2022-08-07T05:35:52.958Z,100957.34
2022-08-07T05:39:00.495Z,100972.44
2022-08-07T05:41:14.328Z,100972.59
2022-08-07T05:44:07.686Z,100968.16
2022-08-07T05:46:37.142Z,100968.34
2022-08-07T05:49:11.666Z,100972.00
2022-08-07T05:51:40.096Z,100970.44
2022-08-07T05:54:13.381Z,100976.78
2022-08-07T05:56:54.618Z,100976.56
2022-08-07T05:59:22.878Z,100976.63
2022-08-07T06:01:50.714Z,100979.91
2022-08-07T06:04:19.787Z,100987.25
2022-08-07T06:06:47.532Z,100979.06
2022-08-07T06:09:16.817Z,100981.03
2022-08-07T06:11:44.074Z,100978.84
2022-08-07T06:14:21.279Z,100967.91
2022-08-07T06:16:55.949Z,100975.28
2022-08-07T06:19:52.052Z,100979.84
2022-08-07T06:22:22.816Z,100982.88
2022-08-07T06:24:58.123Z,100986.75
2022-08-07T06:27:54.428Z,100979.16
2022-08-07T06:30:32.048Z,100977.09
2022-08-07T06:33:01.581Z,100975.44
2022-08-07T06:35:39.054Z,100985.81
2022-08-07T06:38:20.413Z,100981.16
2022-08-07T06:40:53.000Z,100975.66
2022-08-07T06:43:22.628Z,100979.50
2022-08-07T06:45:50.621Z,100975.72
2022-08-07T06:48:24.783Z,100979.88
2022-08-07T06:50:54.742Z,100974.22
2022-08-07T06:55:28.184Z,100974.31
2022-08-07T06:56:15.506Z,100969.56
2022-08-07T07:00:13.861Z,100969.94
2022-08-07T07:01:44.123Z,100959.38
2022-08-07T07:04:28.488Z,100960.38
2022-08-07T07:07:01.904Z,100958.41
2022-08-07T07:09:31.670Z,100960.91
2022-08-07T07:12:19.819Z,100961.00
2022-08-07T07:14:55.793Z,100959.38
2022-08-07T07:17:38.673Z,100957.44
2022-08-07T07:20:14.738Z,100956.09
2022-08-07T07:24:10.065Z,100958.59
2022-08-07T07:26:34.227Z,100961.22
2022-08-07T07:28:48.592Z,100952.53
2022-08-07T07:31:39.864Z,100954.84
2022-08-07T07:34:10.509Z,100954.75
2022-08-07T07:36:47.683Z,100950.66
2022-08-07T07:39:16.404Z,100944.94
2022-08-07T07:42:02.194Z,100956.72
2022-08-07T07:44:39.775Z,100946.38
2022-08-07T07:47:15.902Z,100954.13
2022-08-07T07:50:36.253Z,100950.81
2022-08-07T07:52:39.434Z,100942.75
2022-08-07T07:55:07.789Z,100946.25
2022-08-07T07:57:51.816Z,100948.50
2022-08-07T08:00:29.127Z,100939.69
2022-08-07T08:03:05.642Z,100936.22
2022-08-07T08:05:51.096Z,100925.78
2022-08-07T08:08:36.289Z,100940.22
2022-08-07T08:11:08.018Z,100934.97
2022-08-07T08:13:54.956Z,100929.22
2022-08-07T08:16:29.792Z,100934.34
2022-08-07T08:19:00.537Z,100928.09
2022-08-07T08:22:07.816Z,100931.06
2022-08-07T08:25:18.144Z,100928.88
2022-08-07T08:27:57.690Z,100930.53
2022-08-07T08:30:34.789Z,100920.22
2022-08-07T08:33:15.186Z,100924.44
2022-08-07T08:35:49.943Z,100918.69
2022-08-07T08:38:29.520Z,100918.69
2022-08-07T08:41:56.799Z,100920.81
2022-08-07T08:44:33.166Z,100921.78
2022-08-07T08:47:10.039Z,100925.81
2022-08-07T08:50:02.527Z,100920.66
2022-08-07T08:52:36.207Z,100909.97
2022-08-07T08:55:21.006Z,100912.47
2022-08-07T08:58:28.595Z,100913.41
2022-08-07T09:01:15.777Z,100911.53
2022-08-07T09:03:58.623Z,100907.72
2022-08-07T09:06:53.593Z,100899.00
2022-08-07T09:09:36.614Z,100898.03
2022-08-07T09:12:30.892Z,100898.13
2022-08-07T09:16:22.882Z,100898.22
2022-08-07T09:18:30.700Z,100900.09
2022-08-07T09:21:58.036Z,100885.72
2022-08-07T09:24:30.860Z,100891.31
2022-08-07T09:27:24.633Z,100891.75
2022-08-07T09:30:07.949Z,100889.88
2022-08-07T09:32:55.300Z,100889.66
2022-08-07T09:36:04.587Z,100885.66
2022-08-07T09:38:53.445Z,100887.59
2022-08-07T09:42:02.936Z,100884.19
2022-08-07T09:47:23.588Z,100874.94
2022-08-07T09:47:59.517Z,100873.56
2022-08-07T09:50:36.388Z,100871.88
2022-08-07T09:53:05.768Z,100867.38
2022-08-07T09:56:10.555Z,100863.53
2022-08-07T09:59:14.642Z,100862.66
2022-08-07T10:01:51.596Z,100851.34
2022-08-07T10:04:47.622Z,100849.22
2022-08-07T10:07:57.543Z,100845.47
2022-08-07T10:11:16.550Z,100844.19
2022-08-07T10:14:00.280Z,100844.34
2022-08-07T10:16:37.383Z,100833.50
2022-08-07T10:19:11.335Z,100835.88
2022-08-07T10:22:12.633Z,100830.59
2022-08-07T10:24:51.375Z,100829.50
2022-08-07T10:27:23.742Z,100832.56
2022-08-07T10:30:16.331Z,100828.84
2022-08-07T10:32:52.774Z,100819.69
2022-08-07T10:35:56.975Z,100820.47
2022-08-07T10:39:00.505Z,100811.66
2022-08-07T10:41:47.241Z,100814.31
2022-08-07T10:44:28.499Z,100813.81
2022-08-07T10:47:15.590Z,100802.44
2022-08-07T10:50:03.626Z,100814.38
2022-08-07T10:52:40.360Z,100817.66
2022-08-07T10:55:21.170Z,100812.53
2022-08-07T10:58:15.712Z,100804.25
2022-08-07T11:00:56.509Z,100811.91
2022-08-07T11:03:55.236Z,100804.66
2022-08-07T11:06:47.801Z,100798.03
2022-08-07T11:10:07.879Z,100797.00
2022-08-07T11:12:49.179Z,100787.34
2022-08-07T11:15:34.134Z,100786.91
2022-08-07T11:18:32.494Z,100787.25
2022-08-07T11:21:06.577Z,100777.94
2022-08-07T11:23:46.337Z,100774.84
2022-08-07T11:26:28.229Z,100778.91
2022-08-07T11:29:05.669Z,100766.00
2022-08-07T11:31:42.745Z,100769.09
2022-08-07T11:34:42.442Z,100765.19
2022-08-07T11:37:38.603Z,100761.88
2022-08-07T11:40:27.716Z,100757.28
2022-08-07T11:43:02.725Z,100752.31
2022-08-07T11:45:53.589Z,100745.22
2022-08-07T11:49:04.395Z,100739.78
2022-08-07T11:51:46.765Z,100752.16
2022-08-07T11:54:31.441Z,100743.03
2022-08-07T11:57:16.716Z,100753.53
2022-08-07T12:00:10.444Z,100749.22
2022-08-07T12:03:41.968Z,100742.53
2022-08-07T12:06:38.881Z,100750.44
2022-08-07T12:09:16.391Z,100742.03
2022-08-07T12:12:10.950Z,100743.56
2022-08-07T12:15:03.180Z,100743.16
2022-08-07T12:17:39.791Z,100730.03
2022-08-07T12:20:30.486Z,100737.84
2022-08-07T12:24:06.329Z,100737.03
2022-08-07T12:26:41.906Z,100739.50
2022-08-07T12:29:37.127Z,100734.06
2022-08-07T12:32:29.874Z,100731.19
2022-08-07T12:34:58.136Z,100724.50
2022-08-07T12:37:28.249Z,100719.78
2022-08-07T12:40:44.914Z,100718.69
2022-08-07T12:43:10.144Z,100705.47
2022-08-07T12:45:55.165Z,100711.31
2022-08-07T12:48:57.417Z,100716.38
2022-08-07T12:51:33.353Z,100713.59
2022-08-07T12:54:38.226Z,100701.28
2022-08-07T12:57:09.935Z,100703.31
2022-08-07T12:59:54.754Z,100699.28
2022-08-07T13:02:49.602Z,100707.16
2022-08-07T13:06:02.872Z,100699.75
2022-08-07T13:08:48.839Z,100694.13
2022-08-07T13:11:26.049Z,100690.09
2022-08-07T13:14:26.913Z,100686.03
2022-08-07T13:17:12.325Z,100686.19
2022-08-07T13:19:56.413Z,100689.53
2022-08-07T13:22:52.633Z,100678.97
2022-08-07T13:25:38.727Z,100683.88
2022-08-07T13:28:18.746Z,100687.56
2022-08-07T13:31:13.388Z,100686.94
2022-08-07T13:34:31.913Z,100685.06
2022-08-07T13:36:51.429Z,100681.34
2022-08-07T13:40:33.211Z,100674.69
2022-08-07T13:42:25.631Z,100676.09
2022-08-07T13:45:20.717Z,100668.22
2022-08-07T13:48:05.982Z,100658.75
2022-08-07T13:50:34.994Z,100662.06
2022-08-07T13:53:21.933Z,100655.59
2022-08-07T13:55:54.716Z,100664.78
2022-08-07T13:58:43.258Z,100656.31
2022-08-07T14:01:25.954Z,100650.97
2022-08-07T14:04:07.419Z,100645.50
2022-08-07T14:06:38.451Z,100634.31
2022-08-07T14:09:06.442Z,100645.97
2022-08-07T14:11:42.387Z,100654.13
2022-08-07T14:14:33.222Z,100651.53
2022-08-07T14:17:13.086Z,100641.19
2022-08-07T14:20:42.347Z,100626.38
2022-08-07T14:22:53.086Z,100634.00
2022-08-07T14:25:29.470Z,100632.44
2022-08-07T14:28:31.212Z,100625.81
2022-08-07T14:30:57.701Z,100625.97
2022-08-07T14:33:26.346Z,100621.75
2022-08-07T14:36:14.899Z,100638.56
2022-08-07T14:38:50.621Z,100617.06
2022-08-07T14:41:34.041Z,100614.47
2022-08-07T14:44:16.239Z,100611.03
2022-08-07T14:46:51.566Z,100615.44
2022-08-07T14:49:57.513Z,100610.44
2022-08-07T14:52:11.099Z,100608.84
2022-08-07T14:54:42.181Z,100605.84
2022-08-07T14:57:54.369Z,100600.59
2022-08-07T15:00:20.735Z,100606.47
2022-08-07T15:02:59.994Z,100603.63
2022-08-07T15:05:30.377Z,100594.28
2022-08-07T15:07:59.869Z,100605.50
2022-08-07T15:16:14.639Z,100598.59
2022-08-07T15:18:51.660Z,100598.72
2022-08-07T15:21:58.411Z,100595.47
2022-08-07T15:25:15.570Z,100599.25
2022-08-07T15:27:06.067Z,100595.44
2022-08-07T15:32:39.656Z,100578.03
2022-08-07T15:36:01.691Z,100571.19
2022-08-07T15:38:31.066Z,100573.25
2022-08-07T15:44:09.065Z,100571.59
2022-08-07T15:46:51.770Z,100574.00
2022-08-07T15:49:25.620Z,100571.44
2022-08-07T15:52:13.833Z,100558.94
2022-08-07T15:54:44.371Z,100562.88
2022-08-07T15:57:39.806Z,100564.72
2022-08-07T16:00:06.456Z,100552.47
2022-08-07T16:02:41.243Z,100555.88
2022-08-07T16:05:15.902Z,100557.69
2022-08-07T16:08:30.264Z,100555.97
2022-08-07T16:10:36.569Z,100550.19
2022-08-07T16:13:59.912Z,100548.63
2022-08-07T16:16:47.826Z,100555.66
2022-08-07T16:19:43.051Z,100550.91
2022-08-07T16:22:54.940Z,100552.59
2022-08-07T16:25:55.473Z,100543.16
2022-08-07T16:30:07.783Z,100537.38
2022-08-07T16:31:51.724Z,100539.81
2022-08-07T16:34:39.468Z,100541.53
2022-08-07T16:38:03.724Z,100543.69
2022-08-07T16:40:35.765Z,100531.03
2022-08-07T16:44:05.531Z,100539.63
2022-08-07T16:47:06.701Z,100544.69
2022-08-07T16:50:20.026Z,100548.53
2022-08-07T16:53:20.731Z,100548.53
2022-08-07T16:56:02.956Z,100548.59
2022-08-07T16:59:10.525Z,100540.63
2022-08-07T17:02:02.795Z,100546.59
2022-08-07T17:04:57.792Z,100557.97
2022-08-07T17:07:55.248Z,100542.56
2022-08-07T17:10:32.738Z,100549.34
2022-08-07T17:13:24.632Z,100546.03
2022-08-07T17:16:16.156Z,100537.53
2022-08-07T17:18:52.074Z,100545.91
2022-08-07T17:21:23.666Z,100544.50
2022-08-07T17:24:23.663Z,100539.88
2022-08-07T17:27:19.851Z,100537.25
2022-08-07T17:30:19.649Z,100546.50
2022-08-07T17:32:59.259Z,100559.44
2022-08-07T17:35:54.962Z,100555.84
2022-08-07T17:38:50.642Z,100557.16
2022-08-07T17:42:04.955Z,100546.94
2022-08-07T17:44:45.565Z,100546.19
2022-08-07T17:47:53.929Z,100554.28
2022-08-07T17:50:30.869Z,100555.66
2022-08-07T17:53:07.400Z,100560.81
2022-08-07T17:56:01.026Z,100564.69
2022-08-07T17:58:36.627Z,100549.16
2022-08-07T18:01:20.680Z,100563.78
2022-08-07T18:04:07.993Z,100563.41
2022-08-07T18:07:19.263Z,100565.38
2022-08-07T18:10:04.315Z,100562.94
2022-08-07T18:12:41.972Z,100567.91
2022-08-07T18:15:14.683Z,100568.94
2022-08-07T18:18:33.105Z,100565.66
2022-08-07T18:21:12.641Z,100571.63
2022-08-07T18:24:07.379Z,100571.63
2022-08-07T18:26:55.726Z,100576.28
2022-08-07T18:30:06.950Z,100576.53
2022-08-07T18:32:53.889Z,100578.88
2022-08-07T18:35:51.566Z,100584.47
2022-08-07T18:40:07.535Z,100589.44
2022-08-07T18:42:13.786Z,100588.00
2022-08-07T18:45:44.735Z,100597.06
2022-08-07T18:50:05.908Z,100586.25
2022-08-07T18:52:33.635Z,100589.97
2022-08-07T18:54:33.047Z,100597.00
2022-08-07T18:57:31.600Z,100604.25
2022-08-07T19:00:32.070Z,100601.41
2022-08-07T19:03:15.791Z,100602.28
2022-08-07T19:06:02.064Z,100603.97
2022-08-07T19:08:49.629Z,100607.59
2022-08-07T19:11:36.533Z,100605.00
2022-08-07T19:14:19.876Z,100611.00
2022-08-07T19:17:07.005Z,100608.41
2022-08-07T19:19:50.852Z,100616.34
2022-08-07T19:22:39.591Z,100619.63
2022-08-07T19:26:23.122Z,100618.50
2022-08-07T19:28:56.654Z,100619.38
2022-08-07T19:31:42.185Z,100628.75
2022-08-07T19:33:58.108Z,100632.13
2022-08-07T19:36:27.984Z,100633.13
2022-08-07T19:38:58.315Z,100646.63
2022-08-07T19:41:44.247Z,100644.03
2022-08-07T19:44:21.988Z,100642.38
2022-08-07T19:46:55.780Z,100657.47
2022-08-07T19:49:58.135Z,100652.19
2022-08-07T19:52:18.277Z,100653.09
2022-08-07T19:54:55.616Z,100652.97
2022-08-07T19:58:01.917Z,100652.69
2022-08-07T20:00:29.795Z,100645.53
2022-08-07T20:03:01.902Z,100655.13
2022-08-07T20:05:59.606Z,100642.88
2022-08-07T20:08:24.601Z,100647.78
2022-08-07T20:11:34.251Z,100657.50
2022-08-07T20:14:07.375Z,100656.59
2022-08-07T20:16:48.116Z,100659.91
2022-08-07T20:19:23.789Z,100660.56
2022-08-07T20:21:56.958Z,100656.94
2022-08-07T20:24:31.575Z,100656.84
2022-08-07T20:27:03.492Z,100657.25
2022-08-07T20:29:47.818Z,100656.81
2022-08-07T20:32:39.858Z,100656.13
2022-08-07T20:35:15.953Z,100667.22
2022-08-07T20:37:55.772Z,100669.44
2022-08-07T20:40:32.984Z,100665.78
2022-08-07T20:43:02.790Z,100670.44
2022-08-07T20:46:26.439Z,100661.81
2022-08-07T20:48:28.667Z,100666.78
2022-08-07T20:50:59.952Z,100672.00
2022-08-07T20:54:03.196Z,100667.03
2022-08-07T20:56:16.488Z,100662.16
2022-08-07T20:58:50.186Z,100668.41
2022-08-07T21:01:21.554Z,100665.44
2022-08-07T21:04:19.652Z,100662.88
2022-08-07T21:06:46.572Z,100664.03
2022-08-07T21:09:24.631Z,100661.84
2022-08-07T21:11:57.512Z,100673.31
2022-08-07T21:14:33.459Z,100675.69
2022-08-07T21:18:01.125Z,100675.09
2022-08-07T21:20:04.630Z,100673.34
2022-08-07T21:22:51.343Z,100669.28
2022-08-07T21:25:39.254Z,100676.91
2022-08-07T21:28:08.991Z,100678.56
2022-08-07T21:30:41.850Z,100679.34
2022-08-07T21:33:22.007Z,100670.25
2022-08-07T21:36:32.329Z,100676.94
2022-08-07T21:39:45.956Z,100680.88
2022-08-07T21:42:46.491Z,100674.69
2022-08-07T21:46:08.116Z,100677.19
2022-08-07T21:48:27.633Z,100676.94
2022-08-07T21:51:32.366Z,100674.78
2022-08-07T21:54:19.955Z,100683.28
2022-08-07T21:57:31.637Z,100682.72
2022-08-07T22:00:23.025Z,100691.75
2022-08-07T22:03:30.881Z,100686.38
2022-08-07T22:06:30.840Z,100701.50
2022-08-07T22:09:02.754Z,100701.59
2022-08-07T22:12:05.361Z,100692.66
2022-08-07T22:14:34.788Z,100698.72
2022-08-07T22:17:04.820Z,100697.25
2022-08-07T22:20:02.580Z,100698.09
2022-08-07T22:22:44.729Z,100699.19
2022-08-07T22:25:48.553Z,100701.09
2022-08-07T22:28:42.604Z,100700.69
2022-08-07T22:32:00.390Z,100703.00
2022-08-07T22:34:31.788Z,100703.31
2022-08-07T22:38:02.747Z,100707.88
2022-08-07T22:40:35.640Z,100709.13
2022-08-07T22:43:09.715Z,100708.44
2022-08-07T22:46:40.662Z,100714.31
2022-08-07T22:49:02.083Z,100709.72
2022-08-07T22:51:41.881Z,100717.38
2022-08-07T22:54:11.305Z,100718.00
2022-08-07T22:57:00.663Z,100715.75
2022-08-07T22:59:58.083Z,100721.53
2022-08-07T23:02:47.468Z,100722.59
2022-08-07T23:06:07.514Z,100715.00
2022-08-07T23:08:51.648Z,100720.16
2022-08-07T23:11:35.125Z,100724.81
2022-08-07T23:14:30.438Z,100717.34
2022-08-07T23:17:41.609Z,100729.41
2022-08-07T23:20:51.848Z,100723.63
2022-08-07T23:24:04.102Z,100715.09
2022-08-07T23:26:50.216Z,100722.59
2022-08-07T23:30:37.031Z,100718.97
2022-08-07T23:34:33.727Z,100712.09
2022-08-07T23:36:29.815Z,100716.72
2022-08-07T23:39:12.414Z,100708.34
2022-08-07T23:42:05.153Z,100708.59
2022-08-07T23:44:56.319Z,100710.34
2022-08-07T23:47:48.431Z,100709.03
2022-08-07T23:50:40.887Z,100703.16
2022-08-07T23:53:31.363Z,100709.22
2022-08-07T23:56:28.146Z,100703.47
2022-08-07T23:59:10.277Z,100712.56
